createdAt,value
2023-03-08T00:01:25.203Z,86.41
2023-03-08T00:03:55.818Z,87.94
2023-03-08T00:06:24.636Z,87.64
2023-03-08T00:08:59.155Z,87.10
2023-03-08T00:11:27.653Z,86.84
2023-03-08T00:13:55.596Z,85.91
2023-03-08T00:16:23.020Z,86.97
2023-03-08T00:18:50.226Z,87.02
2023-03-08T00:21:19.330Z,87.67
2023-03-08T00:23:46.991Z,87.78
2023-03-08T00:26:18.586Z,87.09
2023-03-08T00:28:47.094Z,87.43
2023-03-08T00:31:14.857Z,88.21
2023-03-08T00:33:41.818Z,87.53
2023-03-08T00:36:17.183Z,87.48
2023-03-08T00:38:45.117Z,87.08
2023-03-08T00:41:15.307Z,87.30
2023-03-08T00:43:43.398Z,87.87
2023-03-08T00:46:13.456Z,87.10
2023-03-08T00:48:41.008Z,87.45
2023-03-08T00:51:16.152Z,87.39
2023-03-08T00:53:43.443Z,87.08
2023-03-08T00:56:10.773Z,88.59
2023-03-08T00:58:39.963Z,88.45
2023-03-08T01:01:09.464Z,87.70
2023-03-08T01:03:36.614Z,88.98
2023-03-08T01:06:13.637Z,89.00
2023-03-08T01:08:43.190Z,88.93
2023-03-08T01:11:25.024Z,88.83
2023-03-08T01:13:54.214Z,88.29
2023-03-08T01:16:29.646Z,88.19
2023-03-08T01:18:57.433Z,87.37
2023-03-08T01:21:26.284Z,87.81
2023-03-08T01:23:53.226Z,88.96
2023-03-08T01:26:23.701Z,88.30
2023-03-08T01:28:54.369Z,88.04
2023-03-08T01:31:28.119Z,87.39
2023-03-08T01:33:56.513Z,87.45
2023-03-08T01:36:28.288Z,87.74
2023-03-08T01:38:55.819Z,88.91
2023-03-08T01:41:31.931Z,88.22
2023-03-08T01:44:01.627Z,88.17
2023-03-08T01:46:35.721Z,88.08
2023-03-08T01:49:25.066Z,89.45
2023-03-08T01:52:10.279Z,88.38
2023-03-08T01:54:56.375Z,88.74
2023-03-08T01:57:45.637Z,88.92
2023-03-08T02:00:23.444Z,89.63
2023-03-08T02:03:01.502Z,90.80
2023-03-08T02:05:29.735Z,90.63
2023-03-08T02:07:57.040Z,92.52
2023-03-08T02:10:23.978Z,91.43
2023-03-08T02:12:51.043Z,91.94
2023-03-08T02:15:20.772Z,90.89
2023-03-08T02:17:48.193Z,91.72
2023-03-08T02:20:32.083Z,91.45
2023-03-08T02:23:21.001Z,91.65
2023-03-08T02:26:01.674Z,93.68
2023-03-08T02:28:29.840Z,92.89
2023-03-08T02:30:57.931Z,92.06
2023-03-08T02:33:27.742Z,92.67
2023-03-08T02:35:54.898Z,91.99
2023-03-08T02:38:22.127Z,91.54
2023-03-08T02:40:51.605Z,91.26
2023-03-08T02:43:19.667Z,92.36
2023-03-08T02:45:46.880Z,90.89
2023-03-08T02:48:14.659Z,91.75
2023-03-08T02:50:41.986Z,91.56
2023-03-08T02:53:09.651Z,90.37
2023-03-08T02:55:40.000Z,90.44
2023-03-08T02:58:09.187Z,90.17
2023-03-08T03:00:37.151Z,91.02
2023-03-08T03:03:04.383Z,89.66
2023-03-08T03:05:33.568Z,89.40
2023-03-08T03:08:01.433Z,87.99
2023-03-08T03:10:28.592Z,87.83
2023-03-08T03:12:55.451Z,87.19
2023-03-08T03:15:22.500Z,88.14
2023-03-08T03:17:49.458Z,88.43
2023-03-08T03:20:16.676Z,89.24
2023-03-08T03:22:44.938Z,88.06
2023-03-08T03:25:12.094Z,87.25
2023-03-08T03:27:39.662Z,86.99
2023-03-08T03:30:09.273Z,87.95
2023-03-08T03:32:36.639Z,88.07
2023-03-08T03:35:03.874Z,88.39
2023-03-08T03:37:33.817Z,89.23
2023-03-08T03:40:03.495Z,87.77
2023-03-08T03:42:30.435Z,88.40
2023-03-08T03:45:00.303Z,87.86
2023-03-08T03:47:27.424Z,87.28
2023-03-08T03:49:56.842Z,88.14
2023-03-08T03:52:23.818Z,87.67
2023-03-08T03:54:53.272Z,89.08
2023-03-08T03:57:20.804Z,88.16
2023-03-08T03:59:47.915Z,87.05
2023-03-08T04:02:17.349Z,88.18
2023-03-08T04:04:46.764Z,87.02
2023-03-08T04:07:16.284Z,86.85
2023-03-08T04:09:43.152Z,85.89
2023-03-08T04:12:12.128Z,86.44
2023-03-08T04:14:40.343Z,86.90
2023-03-08T04:17:08.252Z,86.98
2023-03-08T04:19:37.709Z,85.51
2023-03-08T04:22:06.992Z,85.27
2023-03-08T04:24:36.186Z,86.32
2023-03-08T04:27:05.907Z,85.65
2023-03-08T04:29:32.809Z,86.61
2023-03-08T04:32:00.321Z,85.96
2023-03-08T04:34:27.856Z,86.03
2023-03-08T04:36:57.385Z,87.75
2023-03-08T04:39:28.253Z,87.54
2023-03-08T04:41:55.137Z,88.14
2023-03-08T04:44:22.207Z,87.74
2023-03-08T04:46:51.470Z,88.20
2023-03-08T04:49:18.434Z,88.96
2023-03-08T04:51:50.068Z,88.87
2023-03-08T04:54:21.638Z,89.30
2023-03-08T04:56:51.612Z,89.08
2023-03-08T04:59:23.134Z,88.49
2023-03-08T05:01:50.368Z,87.76
2023-03-08T05:04:17.365Z,86.93
2023-03-08T05:06:44.783Z,86.15
2023-03-08T05:09:11.665Z,84.94
2023-03-08T05:11:38.654Z,86.23
2023-03-08T05:14:09.338Z,86.22
2023-03-08T05:16:41.643Z,87.09
2023-03-08T05:19:11.011Z,86.89
2023-03-08T05:21:38.025Z,85.24
2023-03-08T05:24:05.477Z,84.60
2023-03-08T05:26:36.161Z,83.96
2023-03-08T05:29:03.975Z,83.35
2023-03-08T05:31:31.096Z,84.29
2023-03-08T05:34:00.671Z,85.28
2023-03-08T05:36:27.767Z,84.03
2023-03-08T05:38:55.509Z,83.61
2023-03-08T05:41:24.890Z,84.44
2023-03-08T05:43:51.957Z,85.07
2023-03-08T05:46:21.808Z,85.95
2023-03-08T05:48:51.482Z,86.18
2023-03-08T05:51:19.383Z,85.68
2023-03-08T05:53:46.927Z,84.72
2023-03-08T05:56:21.328Z,84.07
2023-03-08T05:58:48.625Z,83.86
2023-03-08T06:01:16.898Z,84.25
2023-03-08T06:03:56.416Z,82.59
2023-03-08T06:06:26.504Z,82.39
2023-03-08T06:08:54.005Z,82.52
2023-03-08T06:11:23.900Z,82.04
2023-03-08T06:13:51.263Z,82.52
2023-03-08T06:16:18.471Z,84.70
2023-03-08T06:18:45.418Z,84.49
2023-03-08T06:21:23.053Z,85.97
2023-03-08T06:23:53.176Z,84.30
2023-03-08T06:26:20.153Z,83.72
2023-03-08T06:28:49.807Z,82.88
2023-03-08T06:31:21.381Z,81.93
2023-03-08T06:33:53.335Z,83.11
2023-03-08T06:36:22.087Z,83.51
2023-03-08T06:38:49.989Z,83.34
2023-03-08T06:41:20.040Z,82.83
2023-03-08T06:43:48.029Z,82.38
2023-03-08T06:46:19.388Z,82.45
2023-03-08T06:48:48.356Z,82.71
2023-03-08T06:51:15.672Z,81.80
2023-03-08T06:53:46.690Z,80.66
2023-03-08T06:56:18.907Z,83.10
2023-03-08T06:58:49.102Z,83.40
2023-03-08T07:01:20.535Z,82.78
2023-03-08T07:03:50.289Z,82.30
2023-03-08T07:06:17.333Z,82.59
2023-03-08T07:08:44.392Z,82.45
2023-03-08T07:11:11.754Z,80.10
2023-03-08T07:13:39.041Z,80.86
2023-03-08T07:16:14.483Z,81.42
2023-03-08T07:18:41.679Z,80.92
2023-03-08T07:21:10.437Z,80.68
2023-03-08T07:23:37.487Z,79.17
2023-03-08T07:26:09.606Z,79.39
2023-03-08T07:28:36.952Z,79.61
2023-03-08T07:31:04.383Z,78.71
2023-03-08T07:33:31.463Z,77.30
2023-03-08T07:36:04.084Z,76.43
2023-03-08T07:38:31.329Z,76.88
2023-03-08T07:40:58.223Z,76.82
2023-03-08T07:43:25.372Z,78.32
2023-03-08T07:45:52.214Z,78.68
2023-03-08T07:48:19.249Z,76.90
2023-03-08T07:50:46.284Z,77.31
2023-03-08T07:53:13.325Z,77.34
2023-03-08T07:55:40.238Z,75.76
2023-03-08T07:58:09.826Z,74.57
2023-03-08T08:00:39.834Z,75.92
2023-03-08T08:03:07.013Z,75.10
2023-03-08T08:05:36.536Z,73.76
2023-03-08T08:08:06.167Z,73.52
2023-03-08T08:10:35.400Z,74.03
2023-03-08T08:13:02.336Z,73.09
2023-03-08T08:15:31.868Z,71.62
2023-03-08T08:18:04.415Z,71.21
2023-03-08T08:20:31.487Z,71.43
2023-03-08T08:23:00.605Z,72.00
2023-03-08T08:25:30.623Z,71.74
2023-03-08T08:28:03.157Z,72.25
2023-03-08T08:30:30.394Z,71.71
2023-03-08T08:32:57.640Z,73.65
2023-03-08T08:35:37.436Z,74.11
2023-03-08T08:38:10.319Z,73.87
2023-03-08T08:40:37.525Z,73.06
2023-03-08T08:43:04.512Z,74.70
2023-03-08T08:45:31.531Z,75.18
2023-03-08T08:48:03.580Z,74.50
2023-03-08T08:50:30.506Z,72.62
2023-03-08T08:53:00.212Z,72.60
2023-03-08T08:55:27.374Z,72.43
2023-03-08T08:57:54.294Z,73.47
2023-03-08T09:00:21.540Z,73.11
2023-03-08T09:02:50.819Z,72.12
2023-03-08T09:05:17.940Z,72.01
2023-03-08T09:07:44.806Z,71.82
2023-03-08T09:10:12.523Z,73.23
2023-03-08T09:12:39.702Z,74.07
2023-03-08T09:15:11.688Z,73.23
2023-03-08T09:17:39.674Z,73.05
2023-03-08T09:20:11.005Z,73.23
2023-03-08T09:22:38.870Z,74.13
2023-03-08T09:25:08.723Z,74.21
2023-03-08T09:27:37.242Z,73.99
2023-03-08T09:30:12.659Z,73.52
2023-03-08T09:32:39.972Z,71.15
2023-03-08T09:35:10.523Z,69.53
2023-03-08T09:37:38.252Z,69.90
2023-03-08T09:40:09.649Z,71.61
2023-03-08T09:42:39.421Z,70.55
2023-03-08T09:45:10.355Z,71.13
2023-03-08T09:48:16.937Z,70.37
2023-03-08T09:50:53.827Z,69.52
2023-03-08T09:53:28.877Z,68.88
2023-03-08T09:56:29.606Z,67.40
2023-03-08T09:59:09.626Z,66.64
2023-03-08T10:01:45.553Z,63.37
2023-03-08T10:04:15.522Z,61.05
2023-03-08T10:07:06.017Z,61.26
2023-03-08T10:09:37.262Z,60.41
2023-03-08T10:12:33.047Z,60.58
2023-03-08T10:15:18.413Z,59.18
2023-03-08T10:17:57.963Z,57.83
2023-03-08T10:20:29.968Z,56.60
2023-03-08T10:23:22.268Z,58.23
2023-03-08T10:25:50.888Z,59.15
2023-03-08T10:28:26.511Z,54.87
2023-03-08T10:31:00.905Z,52.24
2023-03-08T10:33:35.741Z,50.82
2023-03-08T10:36:12.668Z,52.85
2023-03-08T10:38:39.705Z,50.36
2023-03-08T10:41:15.820Z,49.55
2023-03-08T10:43:48.176Z,49.75
2023-03-08T10:46:30.293Z,50.22
2023-03-08T10:49:15.055Z,49.32
2023-03-08T10:51:59.715Z,49.44
2023-03-08T10:54:28.416Z,48.71
2023-03-08T10:57:01.192Z,49.21
2023-03-08T10:59:35.148Z,48.62
2023-03-08T11:02:18.555Z,50.02
2023-03-08T11:05:01.902Z,51.22
2023-03-08T11:07:33.441Z,52.44
2023-03-08T11:10:14.690Z,54.52
2023-03-08T11:12:42.353Z,54.30
2023-03-08T11:15:22.440Z,54.64
2023-03-08T11:18:39.600Z,53.95
2023-03-08T11:21:36.606Z,52.57
2023-03-08T11:24:18.588Z,50.06
2023-03-08T11:27:17.492Z,46.06
2023-03-08T11:29:47.082Z,45.16
2023-03-08T11:32:41.218Z,43.89
2023-03-08T11:35:47.748Z,42.84
2023-03-08T11:38:44.511Z,39.90
2023-03-08T11:41:25.457Z,40.65
2023-03-08T11:44:27.205Z,35.88
2023-03-08T11:47:21.856Z,34.67
2023-03-08T11:49:59.229Z,31.11
2023-03-08T11:53:02.156Z,31.05
2023-03-08T11:56:09.103Z,34.11
2023-03-08T11:58:48.915Z,36.73
2023-03-08T12:01:25.243Z,38.59
2023-03-08T12:03:59.104Z,39.24
2023-03-08T12:06:42.133Z,39.51
2023-03-08T12:09:56.393Z,36.97
2023-03-08T12:12:56.700Z,33.56
2023-03-08T12:15:54.592Z,32.03
2023-03-08T12:18:39.590Z,33.49
2023-03-08T12:21:15.115Z,35.53
2023-03-08T12:24:16.170Z,34.11
2023-03-08T12:26:51.959Z,33.81
2023-03-08T12:29:24.503Z,35.85
2023-03-08T12:31:55.379Z,38.09
2023-03-08T12:34:29.083Z,41.89
2023-03-08T12:36:56.540Z,43.89
2023-03-08T12:39:36.605Z,44.67
2023-03-08T12:42:09.349Z,45.12
2023-03-08T12:44:44.848Z,45.03
2023-03-08T12:47:17.406Z,45.74
2023-03-08T12:49:58.028Z,47.43
2023-03-08T12:52:34.966Z,48.08
2023-03-08T12:55:16.961Z,47.63
2023-03-08T12:57:54.768Z,48.09
2023-03-08T13:00:32.138Z,46.92
2023-03-08T13:03:06.360Z,46.72
2023-03-08T13:05:38.634Z,46.99
2023-03-08T13:08:16.758Z,47.68
2023-03-08T13:10:52.659Z,47.82
2023-03-08T13:13:52.743Z,48.64
2023-03-08T13:16:32.473Z,47.73
2023-03-08T13:19:18.331Z,45.45
2023-03-08T13:21:54.217Z,46.50
2023-03-08T13:24:56.800Z,46.83
2023-03-08T13:27:41.729Z,45.30
2023-03-08T13:30:43.867Z,43.79
2023-03-08T13:33:27.355Z,42.46
2023-03-08T13:36:04.570Z,40.80
2023-03-08T13:38:36.519Z,42.06
2023-03-08T13:41:05.552Z,41.92
2023-03-08T13:43:34.673Z,42.45
2023-03-08T13:46:16.771Z,42.19
2023-03-08T13:48:46.350Z,41.95
2023-03-08T13:51:19.563Z,43.11
2023-03-08T13:53:48.998Z,43.21
2023-03-08T13:56:28.282Z,43.72
2023-03-08T13:58:59.684Z,44.81
2023-03-08T14:01:31.592Z,44.24
2023-03-08T14:03:59.165Z,43.79
2023-03-08T14:06:33.779Z,44.26
2023-03-08T14:09:03.429Z,44.99
2023-03-08T14:11:34.430Z,44.44
2023-03-08T14:14:07.269Z,44.93
2023-03-08T14:16:37.688Z,45.88
2023-03-08T14:19:30.143Z,47.20
2023-03-08T14:22:04.716Z,47.30
2023-03-08T14:24:36.743Z,46.78
2023-03-08T14:27:16.144Z,47.55
2023-03-08T14:29:45.325Z,46.86
2023-03-08T14:32:12.703Z,48.14
2023-03-08T14:34:41.200Z,47.77
2023-03-08T14:37:20.117Z,47.04
2023-03-08T14:39:52.769Z,46.98
2023-03-08T14:42:47.018Z,48.39
2023-03-08T14:45:39.053Z,50.53
2023-03-08T14:48:28.709Z,49.76
2023-03-08T14:51:44.780Z,51.84
2023-03-08T14:54:34.174Z,50.59
2023-03-08T14:57:24.982Z,50.23
2023-03-08T14:59:58.016Z,50.80
2023-03-08T15:02:24.948Z,50.73
2023-03-08T15:04:54.330Z,51.22
2023-03-08T15:07:23.641Z,51.63
2023-03-08T15:09:51.787Z,50.71
2023-03-08T15:12:18.732Z,51.22
2023-03-08T15:14:48.088Z,51.68
2023-03-08T15:17:15.174Z,51.69
2023-03-08T15:19:42.305Z,51.30
2023-03-08T15:22:13.898Z,52.06
2023-03-08T15:24:40.895Z,51.52
2023-03-08T15:27:13.773Z,50.18
2023-03-08T15:29:46.167Z,51.35
2023-03-08T15:32:14.231Z,52.12
2023-03-08T15:34:44.106Z,52.19
2023-03-08T15:37:14.923Z,52.19
2023-03-08T15:39:44.054Z,49.64
2023-03-08T15:42:10.990Z,49.97
2023-03-08T15:44:40.765Z,50.07
2023-03-08T15:47:09.921Z,50.88
2023-03-08T15:49:36.780Z,50.99
2023-03-08T15:52:03.829Z,51.21
2023-03-08T15:54:31.833Z,50.94
2023-03-08T15:56:59.345Z,49.89
2023-03-08T15:59:26.255Z,49.99
2023-03-08T16:01:53.207Z,50.51
2023-03-08T16:04:20.088Z,50.19
2023-03-08T16:06:46.959Z,51.43
2023-03-08T16:09:13.887Z,51.35
2023-03-08T16:11:43.010Z,50.47
2023-03-08T16:14:10.220Z,50.96
2023-03-08T16:16:45.609Z,51.43
2023-03-08T16:19:13.220Z,51.08
2023-03-08T16:21:43.051Z,52.12
2023-03-08T16:24:13.691Z,52.82
2023-03-08T16:26:40.581Z,53.10
2023-03-08T16:29:12.046Z,53.67
2023-03-08T16:31:41.135Z,53.81
2023-03-08T16:34:08.154Z,54.22
2023-03-08T16:36:37.765Z,54.10
2023-03-08T16:39:08.705Z,53.70
2023-03-08T16:41:40.068Z,54.08
2023-03-08T16:44:35.174Z,55.26
2023-03-08T16:47:02.300Z,55.45
2023-03-08T16:49:29.266Z,55.36
2023-03-08T16:51:59.043Z,55.05
2023-03-08T16:54:28.645Z,54.82
2023-03-08T16:56:55.609Z,54.46
2023-03-08T16:59:22.544Z,54.49
2023-03-08T17:01:50.062Z,53.84
2023-03-08T17:04:19.545Z,54.10
2023-03-08T17:06:49.684Z,54.36
2023-03-08T17:09:16.651Z,54.47
2023-03-08T17:11:45.555Z,53.77
2023-03-08T17:14:14.627Z,54.34
2023-03-08T17:16:43.860Z,54.83
2023-03-08T17:19:13.340Z,54.96
2023-03-08T17:21:40.301Z,55.27
2023-03-08T17:24:13.124Z,55.74
2023-03-08T17:26:47.451Z,55.78
2023-03-08T17:29:15.074Z,55.62
2023-03-08T17:31:44.796Z,55.92
2023-03-08T17:34:11.741Z,56.67
2023-03-08T17:36:39.013Z,56.16
2023-03-08T17:39:06.167Z,56.39
2023-03-08T17:41:34.314Z,55.82
2023-03-08T17:44:06.301Z,55.92
2023-03-08T17:46:35.720Z,55.93
2023-03-08T17:49:02.910Z,55.89
2023-03-08T17:51:33.000Z,55.88
2023-03-08T17:54:01.251Z,55.81
2023-03-08T17:56:32.270Z,55.97
2023-03-08T17:59:01.317Z,55.81
2023-03-08T18:01:32.546Z,56.42
2023-03-08T18:04:02.628Z,56.61
2023-03-08T18:06:39.428Z,56.69
2023-03-08T18:09:15.901Z,56.18
2023-03-08T18:11:45.442Z,55.74
2023-03-08T18:14:14.587Z,55.85
2023-03-08T18:16:45.030Z,56.30
2023-03-08T18:19:12.417Z,55.81
2023-03-08T18:21:41.266Z,55.71
2023-03-08T18:24:11.926Z,56.14
2023-03-08T18:26:38.849Z,55.93
2023-03-08T18:29:08.114Z,56.05
2023-03-08T18:31:40.237Z,55.64
2023-03-08T18:34:10.604Z,56.33
2023-03-08T18:36:40.319Z,56.16
2023-03-08T18:39:12.205Z,56.33
2023-03-08T18:41:44.043Z,56.08
2023-03-08T18:44:13.355Z,56.88
2023-03-08T18:46:40.277Z,56.73
2023-03-08T18:49:12.383Z,56.45
2023-03-08T18:51:41.607Z,57.22
2023-03-08T18:54:13.657Z,57.03
2023-03-08T18:56:43.217Z,56.92
2023-03-08T18:59:13.641Z,57.37
2023-03-08T19:01:40.809Z,57.01
2023-03-08T19:04:12.784Z,57.84
2023-03-08T19:06:41.796Z,58.48
2023-03-08T19:09:11.549Z,59.33
2023-03-08T19:11:39.146Z,59.79
2023-03-08T19:14:07.267Z,59.78
2023-03-08T19:16:36.813Z,59.99
2023-03-08T19:19:11.359Z,61.21
2023-03-08T19:21:42.004Z,61.10
2023-03-08T19:24:12.249Z,60.06
2023-03-08T19:26:42.896Z,60.86
2023-03-08T19:29:26.661Z,61.04
2023-03-08T19:32:03.617Z,61.19
2023-03-08T19:34:40.330Z,62.70
2023-03-08T19:37:09.489Z,62.58
2023-03-08T19:39:40.479Z,63.03
2023-03-08T19:42:15.535Z,62.98
2023-03-08T19:44:48.190Z,63.27
2023-03-08T19:47:16.632Z,62.88
2023-03-08T19:49:44.273Z,63.07
2023-03-08T19:52:15.563Z,66.04
2023-03-08T19:54:46.195Z,68.74
2023-03-08T19:57:13.463Z,69.22
2023-03-08T19:59:42.945Z,69.08
2023-03-08T20:02:13.179Z,69.35
2023-03-08T20:04:40.841Z,69.29
2023-03-08T20:07:12.787Z,69.75
2023-03-08T20:09:46.930Z,70.32
2023-03-08T20:12:16.060Z,71.20
2023-03-08T20:14:45.240Z,71.49
2023-03-08T20:17:14.392Z,70.68
2023-03-08T20:19:41.514Z,72.04
2023-03-08T20:22:12.901Z,72.84
2023-03-08T20:24:39.855Z,74.16
2023-03-08T20:27:06.763Z,74.50
2023-03-08T20:29:34.461Z,73.49
2023-03-08T20:32:01.762Z,73.35
2023-03-08T20:34:32.306Z,73.23
2023-03-08T20:36:59.218Z,73.58
2023-03-08T20:39:28.278Z,73.49
2023-03-08T20:41:56.063Z,73.58
2023-03-08T20:44:23.001Z,74.37
2023-03-08T20:46:52.158Z,75.17
2023-03-08T20:49:19.294Z,74.33
2023-03-08T20:51:47.883Z,74.76
2023-03-08T20:54:14.922Z,74.54
2023-03-08T20:56:42.026Z,75.19
2023-03-08T20:59:08.975Z,75.16
2023-03-08T21:01:39.655Z,75.38
2023-03-08T21:04:08.662Z,75.37
2023-03-08T21:06:35.827Z,74.79
2023-03-08T21:09:05.409Z,74.06
2023-03-08T21:11:35.545Z,73.94
2023-03-08T21:14:02.541Z,72.95
2023-03-08T21:16:30.642Z,73.47
2023-03-08T21:19:02.250Z,74.61
2023-03-08T21:21:41.251Z,75.58
2023-03-08T21:24:18.546Z,73.78
2023-03-08T21:26:46.235Z,74.72
2023-03-08T21:29:17.438Z,76.03
2023-03-08T21:31:51.433Z,77.25
2023-03-08T21:34:19.500Z,78.15
2023-03-08T21:36:46.852Z,78.80
2023-03-08T21:39:14.224Z,77.92
2023-03-08T21:41:44.910Z,77.35
2023-03-08T21:44:20.843Z,78.11
2023-03-08T21:46:51.971Z,77.45
2023-03-08T21:49:25.155Z,77.54
2023-03-08T21:51:57.117Z,76.48
2023-03-08T21:54:26.533Z,77.32
2023-03-08T21:56:58.522Z,76.89
2023-03-08T21:59:28.841Z,76.94
2023-03-08T22:01:59.505Z,77.02
2023-03-08T22:04:27.811Z,77.81
2023-03-08T22:06:58.054Z,77.38
2023-03-08T22:09:28.103Z,77.12
2023-03-08T22:11:58.480Z,77.82
2023-03-08T22:14:28.729Z,79.02
2023-03-08T22:16:58.097Z,79.05
2023-03-08T22:19:25.138Z,77.75
2023-03-08T22:21:52.283Z,77.73
2023-03-08T22:24:19.201Z,78.03
2023-03-08T22:26:46.041Z,78.55
2023-03-08T22:29:15.378Z,78.69
2023-03-08T22:31:44.879Z,77.94
2023-03-08T22:34:11.855Z,77.55
2023-03-08T22:36:43.410Z,77.65
2023-03-08T22:39:11.225Z,77.09
2023-03-08T22:41:38.174Z,77.06
2023-03-08T22:44:11.547Z,76.98
2023-03-08T22:46:38.489Z,77.52
2023-03-08T22:49:11.531Z,77.14
2023-03-08T22:51:41.488Z,76.06
2023-03-08T22:54:15.535Z,75.96
2023-03-08T22:56:42.501Z,75.17
2023-03-08T22:59:09.443Z,75.56
2023-03-08T23:01:36.785Z,75.51
2023-03-08T23:04:05.929Z,75.32
2023-03-08T23:06:35.535Z,75.20
2023-03-08T23:09:07.521Z,75.04
2023-03-08T23:11:38.121Z,74.82
2023-03-08T23:14:06.392Z,75.44
2023-03-08T23:16:34.022Z,74.82
2023-03-08T23:19:03.558Z,75.28
2023-03-08T23:21:35.704Z,74.89
2023-03-08T23:24:02.557Z,74.34
2023-03-08T23:26:34.421Z,74.88
2023-03-08T23:29:04.946Z,75.21
2023-03-08T23:31:38.770Z,74.94
2023-03-08T23:34:06.302Z,75.31
2023-03-08T23:36:34.360Z,74.94
2023-03-08T23:39:02.611Z,75.50
2023-03-08T23:41:32.660Z,75.70
2023-03-08T23:44:02.713Z,76.29
2023-03-08T23:46:30.591Z,77.22
2023-03-08T23:49:01.626Z,77.46
2023-03-08T23:51:32.944Z,78.14
2023-03-08T23:54:02.213Z,78.52
2023-03-08T23:56:38.139Z,78.56
2023-03-08T23:59:21.877Z,78.29
